sensor_id;sensor_type;location;lat;lon;timestamp;P1;durP1;ratioP1;P2;durP2;ratioP2
76727;SDS011;65652;53.132;18.026;2023-03-14T00:01:11;5.90;;;2.30;;
76727;SDS011;65652;53.132;18.026;2023-03-14T00:03:41;5.70;;;2.20;;
76727;SDS011;65652;53.132;18.026;2023-03-14T00:06:08;6.80;;;2.60;;
76727;SDS011;65652;53.132;18.026;2023-03-14T00:08:36;6.50;;;2.40;;
76727;SDS011;65652;53.132;18.026;2023-03-14T00:11:04;6.40;;;2.10;;
76727;SDS011;65652;53.132;18.026;2023-03-14T00:13:35;6.30;;;2.50;;
76727;SDS011;65652;53.132;18.026;2023-03-14T00:16:03;5.70;;;2.30;;
76727;SDS011;65652;53.132;18.026;2023-03-14T00:18:34;5.60;;;2.30;;
76727;SDS011;65652;53.132;18.026;2023-03-14T00:21:02;6.20;;;2.40;;
76727;SDS011;65652;53.132;18.026;2023-03-14T00:23:31;6.90;;;2.60;;
76727;SDS011;65652;53.132;18.026;2023-03-14T00:26:03;7.70;;;2.40;;
76727;SDS011;65652;53.132;18.026;2023-03-14T00:28:32;4.90;;;2.00;;
76727;SDS011;65652;53.132;18.026;2023-03-14T00:30:59;7.30;;;2.20;;
76727;SDS011;65652;53.132;18.026;2023-03-14T00:33:29;6.10;;;2.10;;
76727;SDS011;65652;53.132;18.026;2023-03-14T00:35:57;6.80;;;2.30;;
76727;SDS011;65652;53.132;18.026;2023-03-14T00:38:26;5.90;;;2.00;;
76727;SDS011;65652;53.132;18.026;2023-03-14T00:40:53;6.10;;;2.20;;
76727;SDS011;65652;53.132;18.026;2023-03-14T00:43:20;6.30;;;2.40;;
76727;SDS011;65652;53.132;18.026;2023-03-14T00:45:51;7.20;;;2.70;;
76727;SDS011;65652;53.132;18.026;2023-03-14T00:48:19;7.40;;;2.50;;
76727;SDS011;65652;53.132;18.026;2023-03-14T00:50:46;6.00;;;2.40;;
76727;SDS011;65652;53.132;18.026;2023-03-14T00:53:15;6.70;;;2.60;;
76727;SDS011;65652;53.132;18.026;2023-03-14T00:55:43;6.60;;;2.50;;
76727;SDS011;65652;53.132;18.026;2023-03-14T01:00:39;6.40;;;1.80;;
76727;SDS011;65652;53.132;18.026;2023-03-14T01:05:34;6.10;;;2.50;;
76727;SDS011;65652;53.132;18.026;2023-03-14T01:08:02;6.80;;;2.20;;
76727;SDS011;65652;53.132;18.026;2023-03-14T01:10:30;7.30;;;2.10;;
76727;SDS011;65652;53.132;18.026;2023-03-14T01:12:58;4.70;;;1.90;;
76727;SDS011;65652;53.132;18.026;2023-03-14T01:15:25;7.50;;;2.40;;
76727;SDS011;65652;53.132;18.026;2023-03-14T01:17:52;6.10;;;2.10;;
76727;SDS011;65652;53.132;18.026;2023-03-14T01:20:19;5.50;;;2.30;;
76727;SDS011;65652;53.132;18.026;2023-03-14T01:22:46;5.60;;;2.00;;
76727;SDS011;65652;53.132;18.026;2023-03-14T01:25:15;5.10;;;1.90;;
76727;SDS011;65652;53.132;18.026;2023-03-14T01:27:44;5.00;;;2.10;;
76727;SDS011;65652;53.132;18.026;2023-03-14T01:30:11;6.40;;;2.20;;
76727;SDS011;65652;53.132;18.026;2023-03-14T01:32:39;5.30;;;1.90;;
76727;SDS011;65652;53.132;18.026;2023-03-14T01:35:06;5.80;;;1.90;;
76727;SDS011;65652;53.132;18.026;2023-03-14T01:37:34;4.90;;;1.80;;
76727;SDS011;65652;53.132;18.026;2023-03-14T01:40:01;5.10;;;1.90;;
76727;SDS011;65652;53.132;18.026;2023-03-14T01:42:30;6.40;;;2.10;;
76727;SDS011;65652;53.132;18.026;2023-03-14T01:44:58;5.90;;;2.20;;
76727;SDS011;65652;53.132;18.026;2023-03-14T01:47:26;7.00;;;2.30;;
76727;SDS011;65652;53.132;18.026;2023-03-14T01:50:08;5.00;;;1.60;;
76727;SDS011;65652;53.132;18.026;2023-03-14T01:52:42;4.90;;;1.70;;
76727;SDS011;65652;53.132;18.026;2023-03-14T01:55:14;5.80;;;1.80;;
76727;SDS011;65652;53.132;18.026;2023-03-14T01:57:44;6.00;;;2.20;;
76727;SDS011;65652;53.132;18.026;2023-03-14T02:00:15;5.60;;;1.90;;
76727;SDS011;65652;53.132;18.026;2023-03-14T02:02:45;6.10;;;1.70;;
76727;SDS011;65652;53.132;18.026;2023-03-14T02:05:21;5.40;;;2.00;;
76727;SDS011;65652;53.132;18.026;2023-03-14T02:07:59;5.20;;;1.70;;
76727;SDS011;65652;53.132;18.026;2023-03-14T02:10:32;5.20;;;2.00;;
76727;SDS011;65652;53.132;18.026;2023-03-14T02:13:04;5.30;;;2.10;;
76727;SDS011;65652;53.132;18.026;2023-03-14T02:15:39;5.40;;;1.90;;
76727;SDS011;65652;53.132;18.026;2023-03-14T02:18:13;5.60;;;1.80;;
76727;SDS011;65652;53.132;18.026;2023-03-14T02:21:05;4.20;;;1.50;;
76727;SDS011;65652;53.132;18.026;2023-03-14T02:23:47;4.30;;;1.60;;
76727;SDS011;65652;53.132;18.026;2023-03-14T02:26:40;4.90;;;1.60;;
76727;SDS011;65652;53.132;18.026;2023-03-14T02:29:28;6.50;;;1.60;;
76727;SDS011;65652;53.132;18.026;2023-03-14T02:31:59;4.70;;;1.70;;
76727;SDS011;65652;53.132;18.026;2023-03-14T02:34:26;4.40;;;1.70;;
76727;SDS011;65652;53.132;18.026;2023-03-14T02:36:53;4.50;;;1.40;;
76727;SDS011;65652;53.132;18.026;2023-03-14T02:39:33;4.20;;;1.40;;
76727;SDS011;65652;53.132;18.026;2023-03-14T02:42:04;4.40;;;1.30;;
76727;SDS011;65652;53.132;18.026;2023-03-14T02:44:32;4.10;;;1.40;;
76727;SDS011;65652;53.132;18.026;2023-03-14T02:46:59;4.70;;;1.40;;
76727;SDS011;65652;53.132;18.026;2023-03-14T02:49:26;4.10;;;1.10;;
76727;SDS011;65652;53.132;18.026;2023-03-14T02:51:57;4.50;;;1.30;;
76727;SDS011;65652;53.132;18.026;2023-03-14T02:54:24;4.40;;;1.30;;
76727;SDS011;65652;53.132;18.026;2023-03-14T02:56:51;4.80;;;1.20;;
76727;SDS011;65652;53.132;18.026;2023-03-14T02:59:18;3.90;;;1.00;;
76727;SDS011;65652;53.132;18.026;2023-03-14T03:01:55;4.40;;;1.40;;
76727;SDS011;65652;53.132;18.026;2023-03-14T03:04:22;3.70;;;1.10;;
76727;SDS011;65652;53.132;18.026;2023-03-14T03:06:49;3.90;;;1.30;;
76727;SDS011;65652;53.132;18.026;2023-03-14T03:09:16;4.20;;;1.20;;
76727;SDS011;65652;53.132;18.026;2023-03-14T03:11:43;3.50;;;1.00;;
76727;SDS011;65652;53.132;18.026;2023-03-14T03:14:15;3.70;;;1.10;;
76727;SDS011;65652;53.132;18.026;2023-03-14T03:16:42;4.60;;;1.20;;
76727;SDS011;65652;53.132;18.026;2023-03-14T03:19:08;3.40;;;1.00;;
76727;SDS011;65652;53.132;18.026;2023-03-14T03:21:35;3.30;;;0.80;;
76727;SDS011;65652;53.132;18.026;2023-03-14T03:24:02;3.10;;;0.80;;
76727;SDS011;65652;53.132;18.026;2023-03-14T03:26:29;2.90;;;0.80;;
76727;SDS011;65652;53.132;18.026;2023-03-14T03:28:56;3.70;;;1.40;;
76727;SDS011;65652;53.132;18.026;2023-03-14T03:31:23;3.10;;;0.60;;
76727;SDS011;65652;53.132;18.026;2023-03-14T03:33:50;3.20;;;0.90;;
76727;SDS011;65652;53.132;18.026;2023-03-14T03:36:20;4.20;;;1.20;;
76727;SDS011;65652;53.132;18.026;2023-03-14T03:38:49;3.50;;;0.90;;
76727;SDS011;65652;53.132;18.026;2023-03-14T03:41:16;2.80;;;0.80;;
76727;SDS011;65652;53.132;18.026;2023-03-14T03:43:43;3.40;;;1.00;;
76727;SDS011;65652;53.132;18.026;2023-03-14T03:46:11;4.50;;;1.20;;
76727;SDS011;65652;53.132;18.026;2023-03-14T03:48:38;3.40;;;1.00;;
76727;SDS011;65652;53.132;18.026;2023-03-14T03:51:05;3.30;;;0.90;;
76727;SDS011;65652;53.132;18.026;2023-03-14T03:53:33;3.50;;;1.10;;
76727;SDS011;65652;53.132;18.026;2023-03-14T03:56:00;3.80;;;1.30;;
76727;SDS011;65652;53.132;18.026;2023-03-14T03:58:28;3.10;;;1.00;;
76727;SDS011;65652;53.132;18.026;2023-03-14T04:00:56;4.10;;;1.20;;
76727;SDS011;65652;53.132;18.026;2023-03-14T04:03:23;4.30;;;1.20;;
76727;SDS011;65652;53.132;18.026;2023-03-14T04:06:05;3.90;;;1.30;;
76727;SDS011;65652;53.132;18.026;2023-03-14T04:08:38;4.50;;;1.20;;
76727;SDS011;65652;53.132;18.026;2023-03-14T04:11:07;4.20;;;1.30;;
76727;SDS011;65652;53.132;18.026;2023-03-14T04:13:58;3.60;;;0.90;;
76727;SDS011;65652;53.132;18.026;2023-03-14T04:16:26;3.80;;;1.30;;
76727;SDS011;65652;53.132;18.026;2023-03-14T04:19:01;5.00;;;1.30;;
76727;SDS011;65652;53.132;18.026;2023-03-14T04:21:28;2.50;;;0.70;;
76727;SDS011;65652;53.132;18.026;2023-03-14T04:23:57;3.80;;;0.90;;
76727;SDS011;65652;53.132;18.026;2023-03-14T04:26:27;4.20;;;1.40;;
76727;SDS011;65652;53.132;18.026;2023-03-14T04:28:54;3.80;;;1.50;;
76727;SDS011;65652;53.132;18.026;2023-03-14T04:33:50;3.90;;;1.50;;
76727;SDS011;65652;53.132;18.026;2023-03-14T04:36:23;4.80;;;1.70;;
76727;SDS011;65652;53.132;18.026;2023-03-14T04:38:50;4.60;;;1.30;;
76727;SDS011;65652;53.132;18.026;2023-03-14T04:41:20;5.40;;;1.50;;
76727;SDS011;65652;53.132;18.026;2023-03-14T04:43:47;5.50;;;1.80;;
76727;SDS011;65652;53.132;18.026;2023-03-14T04:46:14;4.80;;;1.70;;
76727;SDS011;65652;53.132;18.026;2023-03-14T04:48:41;4.30;;;1.50;;
76727;SDS011;65652;53.132;18.026;2023-03-14T04:51:09;4.60;;;1.70;;
76727;SDS011;65652;53.132;18.026;2023-03-14T04:53:36;3.30;;;1.20;;
76727;SDS011;65652;53.132;18.026;2023-03-14T04:56:06;4.40;;;1.60;;
76727;SDS011;65652;53.132;18.026;2023-03-14T04:58:37;4.20;;;1.60;;
76727;SDS011;65652;53.132;18.026;2023-03-14T05:01:05;4.40;;;1.50;;
76727;SDS011;65652;53.132;18.026;2023-03-14T05:03:55;6.60;;;1.60;;
76727;SDS011;65652;53.132;18.026;2023-03-14T05:06:48;4.80;;;1.50;;
76727;SDS011;65652;53.132;18.026;2023-03-14T05:09:44;4.90;;;1.60;;
76727;SDS011;65652;53.132;18.026;2023-03-14T05:12:27;4.40;;;1.50;;
76727;SDS011;65652;53.132;18.026;2023-03-14T05:15:16;4.60;;;1.80;;
76727;SDS011;65652;53.132;18.026;2023-03-14T05:18:09;5.40;;;2.10;;
76727;SDS011;65652;53.132;18.026;2023-03-14T05:20:50;5.00;;;2.00;;
76727;SDS011;65652;53.132;18.026;2023-03-14T05:23:21;5.40;;;2.10;;
76727;SDS011;65652;53.132;18.026;2023-03-14T05:26:13;5.70;;;1.90;;
76727;SDS011;65652;53.132;18.026;2023-03-14T05:31:52;6.50;;;2.20;;
76727;SDS011;65652;53.132;18.026;2023-03-14T05:34:42;5.60;;;2.10;;
76727;SDS011;65652;53.132;18.026;2023-03-14T05:37:32;4.40;;;1.70;;
76727;SDS011;65652;53.132;18.026;2023-03-14T05:40:19;5.00;;;2.00;;
76727;SDS011;65652;53.132;18.026;2023-03-14T05:42:55;5.20;;;1.90;;
76727;SDS011;65652;53.132;18.026;2023-03-14T05:45:51;4.70;;;1.80;;
76727;SDS011;65652;53.132;18.026;2023-03-14T05:48:33;6.40;;;2.30;;
76727;SDS011;65652;53.132;18.026;2023-03-14T05:51:21;6.40;;;1.90;;
76727;SDS011;65652;53.132;18.026;2023-03-14T05:54:06;6.70;;;2.40;;
76727;SDS011;65652;53.132;18.026;2023-03-14T05:56:49;5.40;;;2.10;;
76727;SDS011;65652;53.132;18.026;2023-03-14T05:59:38;7.80;;;2.40;;
76727;SDS011;65652;53.132;18.026;2023-03-14T06:02:37;5.50;;;2.40;;
76727;SDS011;65652;53.132;18.026;2023-03-14T06:05:07;6.30;;;2.60;;
76727;SDS011;65652;53.132;18.026;2023-03-14T06:07:35;5.20;;;2.00;;
76727;SDS011;65652;53.132;18.026;2023-03-14T06:10:04;7.40;;;2.40;;
76727;SDS011;65652;53.132;18.026;2023-03-14T06:12:32;6.00;;;2.30;;
76727;SDS011;65652;53.132;18.026;2023-03-14T06:14:59;5.60;;;2.10;;
76727;SDS011;65652;53.132;18.026;2023-03-14T06:17:26;6.30;;;2.80;;
76727;SDS011;65652;53.132;18.026;2023-03-14T06:20:00;6.30;;;2.40;;
76727;SDS011;65652;53.132;18.026;2023-03-14T06:22:28;7.10;;;2.60;;
76727;SDS011;65652;53.132;18.026;2023-03-14T06:24:55;7.60;;;2.90;;
76727;SDS011;65652;53.132;18.026;2023-03-14T06:27:22;6.20;;;2.40;;
76727;SDS011;65652;53.132;18.026;2023-03-14T06:29:52;6.30;;;2.90;;
76727;SDS011;65652;53.132;18.026;2023-03-14T06:32:19;6.90;;;2.70;;
76727;SDS011;65652;53.132;18.026;2023-03-14T06:34:48;6.50;;;2.50;;
76727;SDS011;65652;53.132;18.026;2023-03-14T06:37:15;8.00;;;2.50;;
76727;SDS011;65652;53.132;18.026;2023-03-14T06:39:45;5.20;;;1.90;;
76727;SDS011;65652;53.132;18.026;2023-03-14T06:42:19;7.50;;;2.80;;
76727;SDS011;65652;53.132;18.026;2023-03-14T06:44:46;4.60;;;2.20;;
76727;SDS011;65652;53.132;18.026;2023-03-14T06:47:13;6.80;;;2.90;;
76727;SDS011;65652;53.132;18.026;2023-03-14T06:49:42;6.10;;;2.40;;
76727;SDS011;65652;53.132;18.026;2023-03-14T06:52:09;7.30;;;2.80;;
76727;SDS011;65652;53.132;18.026;2023-03-14T06:54:36;6.00;;;2.50;;
76727;SDS011;65652;53.132;18.026;2023-03-14T06:57:03;6.10;;;2.70;;
76727;SDS011;65652;53.132;18.026;2023-03-14T06:59:31;7.40;;;2.90;;
76727;SDS011;65652;53.132;18.026;2023-03-14T07:01:58;4.40;;;1.90;;
76727;SDS011;65652;53.132;18.026;2023-03-14T07:04:25;7.40;;;2.30;;
76727;SDS011;65652;53.132;18.026;2023-03-14T07:06:52;5.10;;;2.30;;
76727;SDS011;65652;53.132;18.026;2023-03-14T07:09:19;7.00;;;2.50;;
76727;SDS011;65652;53.132;18.026;2023-03-14T07:11:56;5.60;;;2.50;;
76727;SDS011;65652;53.132;18.026;2023-03-14T07:14:24;6.60;;;2.60;;
76727;SDS011;65652;53.132;18.026;2023-03-14T07:16:51;5.30;;;2.40;;
76727;SDS011;65652;53.132;18.026;2023-03-14T07:19:18;6.30;;;2.80;;
76727;SDS011;65652;53.132;18.026;2023-03-14T07:21:45;7.40;;;2.40;;
76727;SDS011;65652;53.132;18.026;2023-03-14T07:26:39;6.10;;;2.40;;
76727;SDS011;65652;53.132;18.026;2023-03-14T07:29:06;7.50;;;2.60;;
76727;SDS011;65652;53.132;18.026;2023-03-14T07:31:34;8.10;;;3.30;;
76727;SDS011;65652;53.132;18.026;2023-03-14T07:34:01;7.10;;;2.30;;
76727;SDS011;65652;53.132;18.026;2023-03-14T07:36:31;8.40;;;3.00;;
76727;SDS011;65652;53.132;18.026;2023-03-14T07:38:59;5.80;;;2.60;;
76727;SDS011;65652;53.132;18.026;2023-03-14T07:41:37;7.40;;;2.90;;
76727;SDS011;65652;53.132;18.026;2023-03-14T07:44:23;6.70;;;3.00;;
76727;SDS011;65652;53.132;18.026;2023-03-14T07:46:50;6.40;;;2.60;;
76727;SDS011;65652;53.132;18.026;2023-03-14T07:49:16;6.10;;;2.60;;
76727;SDS011;65652;53.132;18.026;2023-03-14T07:51:43;7.40;;;2.70;;
76727;SDS011;65652;53.132;18.026;2023-03-14T07:54:13;7.00;;;2.60;;
76727;SDS011;65652;53.132;18.026;2023-03-14T07:56:40;8.70;;;2.80;;
76727;SDS011;65652;53.132;18.026;2023-03-14T07:59:07;5.70;;;2.40;;
76727;SDS011;65652;53.132;18.026;2023-03-14T08:01:34;6.50;;;3.00;;
76727;SDS011;65652;53.132;18.026;2023-03-14T08:04:01;6.90;;;3.00;;
76727;SDS011;65652;53.132;18.026;2023-03-14T08:06:28;6.70;;;2.90;;
76727;SDS011;65652;53.132;18.026;2023-03-14T08:08:55;6.00;;;2.60;;
76727;SDS011;65652;53.132;18.026;2023-03-14T08:11:22;7.60;;;2.20;;
76727;SDS011;65652;53.132;18.026;2023-03-14T08:13:49;6.30;;;2.40;;
76727;SDS011;65652;53.132;18.026;2023-03-14T08:16:17;6.20;;;2.50;;
76727;SDS011;65652;53.132;18.026;2023-03-14T08:18:44;6.10;;;2.50;;
76727;SDS011;65652;53.132;18.026;2023-03-14T08:21:12;6.90;;;2.70;;
76727;SDS011;65652;53.132;18.026;2023-03-14T08:23:39;6.80;;;2.40;;
76727;SDS011;65652;53.132;18.026;2023-03-14T08:26:07;6.50;;;2.80;;
76727;SDS011;65652;53.132;18.026;2023-03-14T08:28:34;5.50;;;2.30;;
76727;SDS011;65652;53.132;18.026;2023-03-14T08:31:00;7.20;;;2.40;;
76727;SDS011;65652;53.132;18.026;2023-03-14T08:33:28;6.20;;;3.20;;
76727;SDS011;65652;53.132;18.026;2023-03-14T08:35:56;7.10;;;2.50;;
76727;SDS011;65652;53.132;18.026;2023-03-14T08:38:25;7.00;;;2.30;;
76727;SDS011;65652;53.132;18.026;2023-03-14T08:40:56;6.50;;;2.10;;
76727;SDS011;65652;53.132;18.026;2023-03-14T08:43:25;8.20;;;3.00;;
76727;SDS011;65652;53.132;18.026;2023-03-14T08:45:53;6.20;;;2.90;;
76727;SDS011;65652;53.132;18.026;2023-03-14T08:48:24;7.70;;;2.80;;
76727;SDS011;65652;53.132;18.026;2023-03-14T08:50:51;7.50;;;2.30;;
76727;SDS011;65652;53.132;18.026;2023-03-14T08:53:18;8.50;;;2.50;;
76727;SDS011;65652;53.132;18.026;2023-03-14T08:55:45;7.50;;;2.50;;
76727;SDS011;65652;53.132;18.026;2023-03-14T08:58:12;6.30;;;2.20;;
76727;SDS011;65652;53.132;18.026;2023-03-14T09:00:38;6.50;;;2.20;;
76727;SDS011;65652;53.132;18.026;2023-03-14T09:03:05;6.20;;;1.90;;
76727;SDS011;65652;53.132;18.026;2023-03-14T09:05:33;6.20;;;2.30;;
76727;SDS011;65652;53.132;18.026;2023-03-14T09:08:00;5.70;;;2.20;;
76727;SDS011;65652;53.132;18.026;2023-03-14T09:10:27;6.10;;;1.90;;
76727;SDS011;65652;53.132;18.026;2023-03-14T09:12:54;7.20;;;2.20;;
76727;SDS011;65652;53.132;18.026;2023-03-14T09:15:21;5.60;;;2.10;;
76727;SDS011;65652;53.132;18.026;2023-03-14T09:17:48;7.80;;;2.50;;
76727;SDS011;65652;53.132;18.026;2023-03-14T09:20:15;5.00;;;2.10;;
76727;SDS011;65652;53.132;18.026;2023-03-14T09:22:43;5.10;;;2.20;;
76727;SDS011;65652;53.132;18.026;2023-03-14T09:25:10;5.60;;;2.00;;
76727;SDS011;65652;53.132;18.026;2023-03-14T09:27:37;6.80;;;2.40;;
76727;SDS011;65652;53.132;18.026;2023-03-14T09:30:04;5.50;;;2.10;;
76727;SDS011;65652;53.132;18.026;2023-03-14T09:32:31;6.10;;;2.10;;
76727;SDS011;65652;53.132;18.026;2023-03-14T09:34:58;5.80;;;2.10;;
76727;SDS011;65652;53.132;18.026;2023-03-14T09:37:25;5.40;;;1.90;;
76727;SDS011;65652;53.132;18.026;2023-03-14T09:39:52;5.80;;;1.70;;
76727;SDS011;65652;53.132;18.026;2023-03-14T09:42:23;4.80;;;1.80;;
76727;SDS011;65652;53.132;18.026;2023-03-14T09:44:54;5.40;;;1.70;;
76727;SDS011;65652;53.132;18.026;2023-03-14T09:47:32;7.10;;;1.80;;
76727;SDS011;65652;53.132;18.026;2023-03-14T09:50:01;5.00;;;1.90;;
76727;SDS011;65652;53.132;18.026;2023-03-14T09:52:31;4.90;;;1.70;;
76727;SDS011;65652;53.132;18.026;2023-03-14T09:55:05;5.60;;;1.60;;
76727;SDS011;65652;53.132;18.026;2023-03-14T09:57:36;4.30;;;1.40;;
76727;SDS011;65652;53.132;18.026;2023-03-14T10:00:05;4.80;;;1.60;;
76727;SDS011;65652;53.132;18.026;2023-03-14T10:02:46;6.00;;;1.40;;
76727;SDS011;65652;53.132;18.026;2023-03-14T10:05:20;5.10;;;1.30;;
76727;SDS011;65652;53.132;18.026;2023-03-14T10:07:48;3.50;;;1.20;;
76727;SDS011;65652;53.132;18.026;2023-03-14T10:10:20;4.80;;;1.30;;
76727;SDS011;65652;53.132;18.026;2023-03-14T10:12:58;7.10;;;1.30;;
76727;SDS011;65652;53.132;18.026;2023-03-14T10:15:33;5.40;;;1.70;;
76727;SDS011;65652;53.132;18.026;2023-03-14T10:18:01;3.80;;;1.20;;
76727;SDS011;65652;53.132;18.026;2023-03-14T10:20:36;3.90;;;1.20;;
76727;SDS011;65652;53.132;18.026;2023-03-14T10:25:39;5.30;;;1.90;;
76727;SDS011;65652;53.132;18.026;2023-03-14T10:28:22;4.40;;;1.50;;
76727;SDS011;65652;53.132;18.026;2023-03-14T10:30:52;4.50;;;1.50;;
76727;SDS011;65652;53.132;18.026;2023-03-14T10:33:23;6.00;;;1.60;;
76727;SDS011;65652;53.132;18.026;2023-03-14T10:35:56;4.80;;;1.60;;
76727;SDS011;65652;53.132;18.026;2023-03-14T10:38:27;4.60;;;1.50;;
76727;SDS011;65652;53.132;18.026;2023-03-14T10:40:55;6.10;;;1.60;;
76727;SDS011;65652;53.132;18.026;2023-03-14T10:43:25;4.90;;;1.50;;
76727;SDS011;65652;53.132;18.026;2023-03-14T10:45:58;5.00;;;1.20;;
76727;SDS011;65652;53.132;18.026;2023-03-14T10:48:36;4.80;;;1.70;;
76727;SDS011;65652;53.132;18.026;2023-03-14T10:51:10;4.60;;;1.30;;
76727;SDS011;65652;53.132;18.026;2023-03-14T10:54:01;5.20;;;1.80;;
76727;SDS011;65652;53.132;18.026;2023-03-14T10:56:58;5.10;;;1.20;;
76727;SDS011;65652;53.132;18.026;2023-03-14T10:59:27;6.10;;;1.90;;
76727;SDS011;65652;53.132;18.026;2023-03-14T11:04:55;5.10;;;1.90;;
76727;SDS011;65652;53.132;18.026;2023-03-14T11:07:43;5.50;;;2.00;;
76727;SDS011;65652;53.132;18.026;2023-03-14T11:10:14;5.70;;;2.00;;
76727;SDS011;65652;53.132;18.026;2023-03-14T11:15:53;4.70;;;1.80;;
76727;SDS011;65652;53.132;18.026;2023-03-14T11:33:08;6.40;;;1.50;;
76727;SDS011;65652;53.132;18.026;2023-03-14T11:35:45;5.40;;;1.80;;
76727;SDS011;65652;53.132;18.026;2023-03-14T11:41:10;4.10;;;1.40;;
76727;SDS011;65652;53.132;18.026;2023-03-14T11:43:41;5.80;;;1.40;;
76727;SDS011;65652;53.132;18.026;2023-03-14T11:49:05;3.70;;;1.10;;
76727;SDS011;65652;53.132;18.026;2023-03-14T11:51:47;7.40;;;1.30;;
76727;SDS011;65652;53.132;18.026;2023-03-14T11:54:22;4.30;;;1.20;;
76727;SDS011;65652;53.132;18.026;2023-03-14T11:56:53;4.40;;;1.20;;
76727;SDS011;65652;53.132;18.026;2023-03-14T12:02:22;4.40;;;1.20;;
76727;SDS011;65652;53.132;18.026;2023-03-14T12:07:57;6.70;;;1.50;;
76727;SDS011;65652;53.132;18.026;2023-03-14T12:10:35;3.90;;;1.20;;
76727;SDS011;65652;53.132;18.026;2023-03-14T12:13:07;6.10;;;1.30;;
76727;SDS011;65652;53.132;18.026;2023-03-14T12:15:40;4.20;;;1.40;;
76727;SDS011;65652;53.132;18.026;2023-03-14T12:18:25;6.20;;;1.70;;
76727;SDS011;65652;53.132;18.026;2023-03-14T12:21:04;6.90;;;1.60;;
76727;SDS011;65652;53.132;18.026;2023-03-14T12:23:44;5.60;;;1.60;;
76727;SDS011;65652;53.132;18.026;2023-03-14T12:26:18;4.30;;;1.50;;
76727;SDS011;65652;53.132;18.026;2023-03-14T12:34:01;5.70;;;1.50;;
76727;SDS011;65652;53.132;18.026;2023-03-14T12:42:40;7.10;;;2.00;;
76727;SDS011;65652;53.132;18.026;2023-03-14T12:45:35;5.80;;;1.60;;
76727;SDS011;65652;53.132;18.026;2023-03-14T12:53:50;5.50;;;1.60;;
76727;SDS011;65652;53.132;18.026;2023-03-14T13:04:31;5.40;;;2.20;;
76727;SDS011;65652;53.132;18.026;2023-03-14T13:07:01;4.40;;;1.50;;
76727;SDS011;65652;53.132;18.026;2023-03-14T13:12:03;6.50;;;1.90;;
76727;SDS011;65652;53.132;18.026;2023-03-14T13:14:36;6.70;;;1.80;;
76727;SDS011;65652;53.132;18.026;2023-03-14T13:17:12;5.30;;;1.80;;
76727;SDS011;65652;53.132;18.026;2023-03-14T13:19:40;6.80;;;2.10;;
76727;SDS011;65652;53.132;18.026;2023-03-14T13:22:15;4.60;;;1.60;;
76727;SDS011;65652;53.132;18.026;2023-03-14T13:24:48;6.10;;;1.90;;
76727;SDS011;65652;53.132;18.026;2023-03-14T13:27:18;7.00;;;1.90;;
76727;SDS011;65652;53.132;18.026;2023-03-14T13:29:50;6.80;;;1.90;;
76727;SDS011;65652;53.132;18.026;2023-03-14T13:34:44;5.70;;;2.10;;
76727;SDS011;65652;53.132;18.026;2023-03-14T13:37:15;6.40;;;2.10;;
76727;SDS011;65652;53.132;18.026;2023-03-14T13:39:52;5.80;;;1.70;;
76727;SDS011;65652;53.132;18.026;2023-03-14T13:42:25;5.60;;;1.60;;
76727;SDS011;65652;53.132;18.026;2023-03-14T13:44:53;6.00;;;1.50;;
76727;SDS011;65652;53.132;18.026;2023-03-14T13:47:23;5.50;;;1.90;;
76727;SDS011;65652;53.132;18.026;2023-03-14T13:49:51;7.70;;;1.70;;
76727;SDS011;65652;53.132;18.026;2023-03-14T13:54:52;6.90;;;1.90;;
76727;SDS011;65652;53.132;18.026;2023-03-14T13:57:20;6.20;;;1.80;;
76727;SDS011;65652;53.132;18.026;2023-03-14T14:00:03;6.50;;;1.60;;
76727;SDS011;65652;53.132;18.026;2023-03-14T14:05:02;4.80;;;1.30;;
76727;SDS011;65652;53.132;18.026;2023-03-14T14:07:30;5.90;;;1.80;;
76727;SDS011;65652;53.132;18.026;2023-03-14T14:09:58;6.80;;;2.10;;
76727;SDS011;65652;53.132;18.026;2023-03-14T14:12:30;5.50;;;1.60;;
76727;SDS011;65652;53.132;18.026;2023-03-14T14:15:10;5.90;;;1.70;;
76727;SDS011;65652;53.132;18.026;2023-03-14T14:17:42;7.50;;;1.70;;
76727;SDS011;65652;53.132;18.026;2023-03-14T14:20:23;6.10;;;2.20;;
76727;SDS011;65652;53.132;18.026;2023-03-14T14:23:09;5.80;;;1.70;;
76727;SDS011;65652;53.132;18.026;2023-03-14T14:25:38;5.80;;;2.10;;
76727;SDS011;65652;53.132;18.026;2023-03-14T14:31:39;5.90;;;2.20;;
76727;SDS011;65652;53.132;18.026;2023-03-14T14:41:35;5.60;;;1.90;;
76727;SDS011;65652;53.132;18.026;2023-03-14T14:44:07;5.20;;;1.90;;
76727;SDS011;65652;53.132;18.026;2023-03-14T14:46:39;5.70;;;1.70;;
76727;SDS011;65652;53.132;18.026;2023-03-14T14:49:10;5.90;;;1.60;;
76727;SDS011;65652;53.132;18.026;2023-03-14T14:51:42;4.40;;;1.60;;
76727;SDS011;65652;53.132;18.026;2023-03-14T14:54:19;6.30;;;1.90;;
76727;SDS011;65652;53.132;18.026;2023-03-14T14:57:01;5.80;;;1.70;;
76727;SDS011;65652;53.132;18.026;2023-03-14T14:59:30;5.50;;;1.70;;
76727;SDS011;65652;53.132;18.026;2023-03-14T15:02:00;4.70;;;1.60;;
76727;SDS011;65652;53.132;18.026;2023-03-14T15:04:31;8.10;;;1.80;;
76727;SDS011;65652;53.132;18.026;2023-03-14T15:06:58;4.40;;;1.60;;
76727;SDS011;65652;53.132;18.026;2023-03-14T15:09:26;7.00;;;1.80;;
76727;SDS011;65652;53.132;18.026;2023-03-14T15:11:53;5.20;;;1.50;;
76727;SDS011;65652;53.132;18.026;2023-03-14T15:14:20;5.20;;;1.80;;
76727;SDS011;65652;53.132;18.026;2023-03-14T15:16:46;5.50;;;1.20;;
76727;SDS011;65652;53.132;18.026;2023-03-14T15:19:20;7.40;;;1.30;;
76727;SDS011;65652;53.132;18.026;2023-03-14T15:21:50;4.80;;;1.40;;
76727;SDS011;65652;53.132;18.026;2023-03-14T15:24:20;4.10;;;1.10;;
76727;SDS011;65652;53.132;18.026;2023-03-14T15:26:47;4.30;;;1.10;;
76727;SDS011;65652;53.132;18.026;2023-03-14T15:29:14;5.20;;;1.10;;
76727;SDS011;65652;53.132;18.026;2023-03-14T15:31:41;5.60;;;1.20;;
76727;SDS011;65652;53.132;18.026;2023-03-14T15:34:10;4.20;;;1.00;;
76727;SDS011;65652;53.132;18.026;2023-03-14T15:36:37;5.00;;;1.10;;
76727;SDS011;65652;53.132;18.026;2023-03-14T15:39:05;4.70;;;1.00;;
76727;SDS011;65652;53.132;18.026;2023-03-14T15:41:33;4.90;;;1.10;;
76727;SDS011;65652;53.132;18.026;2023-03-14T15:44:00;6.50;;;1.30;;
76727;SDS011;65652;53.132;18.026;2023-03-14T15:46:27;4.40;;;0.80;;
76727;SDS011;65652;53.132;18.026;2023-03-14T15:48:54;4.50;;;0.90;;
76727;SDS011;65652;53.132;18.026;2023-03-14T15:51:21;3.50;;;0.90;;
76727;SDS011;65652;53.132;18.026;2023-03-14T15:53:48;4.60;;;1.30;;
76727;SDS011;65652;53.132;18.026;2023-03-14T15:56:16;4.20;;;1.20;;
76727;SDS011;65652;53.132;18.026;2023-03-14T15:58:44;5.10;;;1.20;;
76727;SDS011;65652;53.132;18.026;2023-03-14T16:01:15;4.30;;;1.20;;
76727;SDS011;65652;53.132;18.026;2023-03-14T16:03:43;4.00;;;1.20;;
76727;SDS011;65652;53.132;18.026;2023-03-14T16:06:11;4.40;;;1.40;;
76727;SDS011;65652;53.132;18.026;2023-03-14T16:11:06;5.10;;;1.40;;
76727;SDS011;65652;53.132;18.026;2023-03-14T16:13:33;4.80;;;1.50;;
76727;SDS011;65652;53.132;18.026;2023-03-14T16:16:00;4.30;;;1.20;;
76727;SDS011;65652;53.132;18.026;2023-03-14T16:18:30;5.30;;;1.50;;
76727;SDS011;65652;53.132;18.026;2023-03-14T16:21:00;4.10;;;1.10;;
76727;SDS011;65652;53.132;18.026;2023-03-14T16:23:29;4.60;;;1.30;;
76727;SDS011;65652;53.132;18.026;2023-03-14T16:25:56;5.50;;;1.30;;
76727;SDS011;65652;53.132;18.026;2023-03-14T16:28:23;5.90;;;1.70;;
76727;SDS011;65652;53.132;18.026;2023-03-14T16:33:18;6.20;;;1.20;;
76727;SDS011;65652;53.132;18.026;2023-03-14T16:35:58;4.30;;;1.30;;